sensor_id;sensor_type;location;lat;lon;timestamp;P1;durP1;ratioP1;P2;durP2;ratioP2
27489;SDS011;14925;51.026;13.752;2023-01-15T00:02:06;0.55;;;0.40;;
27489;SDS011;14925;51.026;13.752;2023-01-15T00:07:44;1.65;;;0.30;;
27489;SDS011;14925;51.026;13.752;2023-01-15T00:10:18;0.30;;;0.30;;
27489;SDS011;14925;51.026;13.752;2023-01-15T00:12:46;0.95;;;0.40;;
27489;SDS011;14925;51.026;13.752;2023-01-15T00:15:11;0.30;;;0.30;;
27489;SDS011;14925;51.026;13.752;2023-01-15T00:17:39;1.00;;;0.30;;
27489;SDS011;14925;51.026;13.752;2023-01-15T00:20:07;0.32;;;0.30;;
27489;SDS011;14925;51.026;13.752;2023-01-15T00:22:42;0.50;;;0.30;;
27489;SDS011;14925;51.026;13.752;2023-01-15T00:25:10;0.30;;;0.30;;
27489;SDS011;14925;51.026;13.752;2023-01-15T00:28:19;1.20;;;0.30;;
27489;SDS011;14925;51.026;13.752;2023-01-15T00:30:53;0.20;;;0.20;;
27489;SDS011;14925;51.026;13.752;2023-01-15T00:33:19;0.28;;;0.20;;
27489;SDS011;14925;51.026;13.752;2023-01-15T00:35:57;0.47;;;0.30;;
27489;SDS011;14925;51.026;13.752;2023-01-15T00:38:25;0.40;;;0.20;;
27489;SDS011;14925;51.026;13.752;2023-01-15T00:41:06;0.20;;;0.20;;
27489;SDS011;14925;51.026;13.752;2023-01-15T00:43:40;0.70;;;0.28;;
27489;SDS011;14925;51.026;13.752;2023-01-15T00:46:13;0.17;;;0.17;;
27489;SDS011;14925;51.026;13.752;2023-01-15T00:48:46;1.00;;;0.30;;
27489;SDS011;14925;51.026;13.752;2023-01-15T00:51:14;0.20;;;0.20;;
27489;SDS011;14925;51.026;13.752;2023-01-15T00:53:58;1.33;;;0.22;;
27489;SDS011;14925;51.026;13.752;2023-01-15T00:56:39;1.30;;;0.20;;
27489;SDS011;14925;51.026;13.752;2023-01-15T00:59:20;0.10;;;0.10;;
27489;SDS011;14925;51.026;13.752;2023-01-15T01:01:51;1.75;;;0.30;;
27489;SDS011;14925;51.026;13.752;2023-01-15T01:04:35;0.93;;;0.28;;
27489;SDS011;14925;51.026;13.752;2023-01-15T01:10:04;0.35;;;0.20;;
27489;SDS011;14925;51.026;13.752;2023-01-15T01:12:33;0.20;;;0.20;;
27489;SDS011;14925;51.026;13.752;2023-01-15T01:15:03;0.30;;;0.20;;
27489;SDS011;14925;51.026;13.752;2023-01-15T01:17:47;0.22;;;0.20;;
27489;SDS011;14925;51.026;13.752;2023-01-15T01:20:32;0.68;;;0.30;;
27489;SDS011;14925;51.026;13.752;2023-01-15T01:23:04;0.30;;;0.30;;
27489;SDS011;14925;51.026;13.752;2023-01-15T01:25:32;0.30;;;0.20;;
27489;SDS011;14925;51.026;13.752;2023-01-15T01:28:00;0.38;;;0.20;;
27489;SDS011;14925;51.026;13.752;2023-01-15T01:30:28;0.73;;;0.30;;
27489;SDS011;14925;51.026;13.752;2023-01-15T01:52:07;0.10;;;0.10;;
27489;SDS011;14925;51.026;13.752;2023-01-15T02:01:13;0.52;;;0.20;;
27489;SDS011;14925;51.026;13.752;2023-01-15T02:03:46;0.45;;;0.20;;
27489;SDS011;14925;51.026;13.752;2023-01-15T02:06:36;1.17;;;0.22;;
27489;SDS011;14925;51.026;13.752;2023-01-15T02:09:12;0.40;;;0.20;;
27489;SDS011;14925;51.026;13.752;2023-01-15T02:35:05;0.93;;;0.40;;
27489;SDS011;14925;51.026;13.752;2023-01-15T02:38:54;0.30;;;0.20;;
27489;SDS011;14925;51.026;13.752;2023-01-15T02:42:12;0.50;;;0.20;;
27489;SDS011;14925;51.026;13.752;2023-01-15T02:52:07;0.73;;;0.30;;
27489;SDS011;14925;51.026;13.752;2023-01-15T02:54:49;0.65;;;0.20;;
27489;SDS011;14925;51.026;13.752;2023-01-15T02:58:12;0.28;;;0.20;;
27489;SDS011;14925;51.026;13.752;2023-01-15T03:01:34;0.40;;;0.20;;
27489;SDS011;14925;51.026;13.752;2023-01-15T03:08:07;0.30;;;0.30;;
27489;SDS011;14925;51.026;13.752;2023-01-15T03:14:26;0.80;;;0.30;;
27489;SDS011;14925;51.026;13.752;2023-01-15T03:24:00;0.25;;;0.20;;
27489;SDS011;14925;51.026;13.752;2023-01-15T03:30:16;0.40;;;0.30;;
27489;SDS011;14925;51.026;13.752;2023-01-15T03:33:25;0.30;;;0.30;;
27489;SDS011;14925;51.026;13.752;2023-01-15T03:36:37;2.70;;;0.60;;
27489;SDS011;14925;51.026;13.752;2023-01-15T03:56:05;0.65;;;0.35;;
27489;SDS011;14925;51.026;13.752;2023-01-15T04:01:58;0.32;;;0.20;;
27489;SDS011;14925;51.026;13.752;2023-01-15T04:04:55;0.40;;;0.40;;
27489;SDS011;14925;51.026;13.752;2023-01-15T04:11:42;0.30;;;0.20;;
27489;SDS011;14925;51.026;13.752;2023-01-15T04:14:42;0.22;;;0.20;;
27489;SDS011;14925;51.026;13.752;2023-01-15T04:17:36;0.95;;;0.38;;
27489;SDS011;14925;51.026;13.752;2023-01-15T04:20:37;1.20;;;0.30;;
27489;SDS011;14925;51.026;13.752;2023-01-15T04:23:36;0.93;;;0.30;;
27489;SDS011;14925;51.026;13.752;2023-01-15T04:26:10;0.80;;;0.20;;
27489;SDS011;14925;51.026;13.752;2023-01-15T04:29:11;0.20;;;0.20;;
27489;SDS011;14925;51.026;13.752;2023-01-15T04:31:39;0.38;;;0.20;;
27489;SDS011;14925;51.026;13.752;2023-01-15T04:34:33;1.40;;;0.30;;
27489;SDS011;14925;51.026;13.752;2023-01-15T04:45:01;0.82;;;0.25;;
27489;SDS011;14925;51.026;13.752;2023-01-15T04:47:57;1.95;;;0.38;;
27489;SDS011;14925;51.026;13.752;2023-01-15T05:01:07;2.67;;;0.40;;
27489;SDS011;14925;51.026;13.752;2023-01-15T05:10:20;2.78;;;0.40;;
27489;SDS011;14925;51.026;13.752;2023-01-15T05:13:06;1.75;;;0.60;;
27489;SDS011;14925;51.026;13.752;2023-01-15T05:19:03;0.52;;;0.40;;
27489;SDS011;14925;51.026;13.752;2023-01-15T05:21:53;1.17;;;0.32;;
27489;SDS011;14925;51.026;13.752;2023-01-15T05:24:29;1.77;;;0.60;;
27489;SDS011;14925;51.026;13.752;2023-01-15T05:27:03;0.57;;;0.45;;
27489;SDS011;14925;51.026;13.752;2023-01-15T05:33:06;2.28;;;0.50;;
27489;SDS011;14925;51.026;13.752;2023-01-15T05:35:59;1.50;;;0.40;;
27489;SDS011;14925;51.026;13.752;2023-01-15T05:42:08;0.80;;;0.50;;
27489;SDS011;14925;51.026;13.752;2023-01-15T05:44:38;1.52;;;0.50;;
27489;SDS011;14925;51.026;13.752;2023-01-15T05:47:22;1.00;;;0.40;;
27489;SDS011;14925;51.026;13.752;2023-01-15T05:50:20;0.90;;;0.50;;
27489;SDS011;14925;51.026;13.752;2023-01-15T05:53:30;2.00;;;0.40;;
27489;SDS011;14925;51.026;13.752;2023-01-15T05:56:17;1.63;;;0.45;;
27489;SDS011;14925;51.026;13.752;2023-01-15T05:59:08;0.40;;;0.40;;
27489;SDS011;14925;51.026;13.752;2023-01-15T06:02:17;1.35;;;0.50;;
27489;SDS011;14925;51.026;13.752;2023-01-15T06:05:01;1.00;;;0.55;;
27489;SDS011;14925;51.026;13.752;2023-01-15T06:17:47;1.25;;;0.77;;
27489;SDS011;14925;51.026;13.752;2023-01-15T06:30:28;0.57;;;0.30;;
27489;SDS011;14925;51.026;13.752;2023-01-15T06:33:12;0.60;;;0.20;;
27489;SDS011;14925;51.026;13.752;2023-01-15T06:35:54;1.13;;;0.30;;
27489;SDS011;14925;51.026;13.752;2023-01-15T06:41:54;0.20;;;0.20;;
27489;SDS011;14925;51.026;13.752;2023-01-15T06:44:38;0.30;;;0.20;;
27489;SDS011;14925;51.026;13.752;2023-01-15T06:47:30;0.65;;;0.20;;
27489;SDS011;14925;51.026;13.752;2023-01-15T06:50:05;3.03;;;0.20;;
27489;SDS011;14925;51.026;13.752;2023-01-15T06:52:37;0.68;;;0.10;;
27489;SDS011;14925;51.026;13.752;2023-01-15T06:55:24;0.45;;;0.30;;
27489;SDS011;14925;51.026;13.752;2023-01-15T06:57:48;1.25;;;0.35;;
27489;SDS011;14925;51.026;13.752;2023-01-15T07:00:29;1.27;;;0.50;;
27489;SDS011;14925;51.026;13.752;2023-01-15T13:41:41;1.48;;;0.60;;
27489;SDS011;14925;51.026;13.752;2023-01-15T13:45:04;1.67;;;0.70;;
27489;SDS011;14925;51.026;13.752;2023-01-15T13:47:56;1.48;;;0.40;;
27489;SDS011;14925;51.026;13.752;2023-01-15T13:57:47;0.38;;;0.38;;
27489;SDS011;14925;51.026;13.752;2023-01-15T14:00:39;0.70;;;0.50;;
27489;SDS011;14925;51.026;13.752;2023-01-15T14:19:37;1.83;;;0.80;;
27489;SDS011;14925;51.026;13.752;2023-01-15T14:35:33;1.05;;;0.47;;
27489;SDS011;14925;51.026;13.752;2023-01-15T14:38:30;0.55;;;0.40;;
27489;SDS011;14925;51.026;13.752;2023-01-15T14:41:09;0.88;;;0.60;;
27489;SDS011;14925;51.026;13.752;2023-01-15T14:43:40;1.38;;;0.50;;
27489;SDS011;14925;51.026;13.752;2023-01-15T14:46:25;0.55;;;0.50;;
27489;SDS011;14925;51.026;13.752;2023-01-15T14:52:40;0.60;;;0.50;;
27489;SDS011;14925;51.026;13.752;2023-01-15T15:07:04;0.90;;;0.70;;
27489;SDS011;14925;51.026;13.752;2023-01-15T15:09:54;3.35;;;0.60;;
27489;SDS011;14925;51.026;13.752;2023-01-15T15:22:03;2.55;;;0.70;;
27489;SDS011;14925;51.026;13.752;2023-01-15T15:25:07;0.95;;;0.63;;
27489;SDS011;14925;51.026;13.752;2023-01-15T15:27:41;2.28;;;0.73;;
27489;SDS011;14925;51.026;13.752;2023-01-15T15:30:22;1.75;;;0.75;;
27489;SDS011;14925;51.026;13.752;2023-01-15T15:36:08;3.03;;;1.33;;
27489;SDS011;14925;51.026;13.752;2023-01-15T15:39:03;1.55;;;1.02;;
27489;SDS011;14925;51.026;13.752;2023-01-15T15:44:11;1.33;;;0.45;;
27489;SDS011;14925;51.026;13.752;2023-01-15T15:50:56;2.65;;;0.68;;
27489;SDS011;14925;51.026;13.752;2023-01-15T15:58:40;1.10;;;0.63;;
27489;SDS011;14925;51.026;13.752;2023-01-15T16:12:12;0.95;;;0.70;;
27489;SDS011;14925;51.026;13.752;2023-01-15T16:14:59;1.83;;;0.88;;
27489;SDS011;14925;51.026;13.752;2023-01-15T16:17:54;2.28;;;0.70;;
27489;SDS011;14925;51.026;13.752;2023-01-15T16:27:28;1.50;;;0.93;;
27489;SDS011;14925;51.026;13.752;2023-01-15T17:50:43;3.10;;;0.80;;
27489;SDS011;14925;51.026;13.752;2023-01-15T18:41:46;3.17;;;1.50;;
27489;SDS011;14925;51.026;13.752;2023-01-15T18:44:32;3.17;;;0.82;;
27489;SDS011;14925;51.026;13.752;2023-01-15T19:08:01;2.58;;;1.00;;
27489;SDS011;14925;51.026;13.752;2023-01-15T19:34:30;5.00;;;1.40;;
27489;SDS011;14925;51.026;13.752;2023-01-15T19:36:59;4.57;;;1.30;;
27489;SDS011;14925;51.026;13.752;2023-01-15T19:39:25;3.90;;;1.48;;
27489;SDS011;14925;51.026;13.752;2023-01-15T19:41:51;5.30;;;1.08;;
27489;SDS011;14925;51.026;13.752;2023-01-15T19:44:35;3.35;;;0.98;;
27489;SDS011;14925;51.026;13.752;2023-01-15T19:47:25;3.05;;;0.75;;
27489;SDS011;14925;51.026;13.752;2023-01-15T19:50:15;2.58;;;0.82;;
27489;SDS011;14925;51.026;13.752;2023-01-15T19:52:43;2.80;;;1.08;;
27489;SDS011;14925;51.026;13.752;2023-01-15T19:55:13;3.35;;;0.90;;
27489;SDS011;14925;51.026;13.752;2023-01-15T19:57:39;3.50;;;0.77;;
27489;SDS011;14925;51.026;13.752;2023-01-15T20:00:08;2.85;;;0.77;;
27489;SDS011;14925;51.026;13.752;2023-01-15T20:02:38;4.15;;;0.80;;
27489;SDS011;14925;51.026;13.752;2023-01-15T20:05:04;4.57;;;0.70;;
27489;SDS011;14925;51.026;13.752;2023-01-15T20:07:33;4.63;;;0.90;;
27489;SDS011;14925;51.026;13.752;2023-01-15T20:09:58;2.75;;;0.80;;
27489;SDS011;14925;51.026;13.752;2023-01-15T20:12:24;6.13;;;0.90;;
27489;SDS011;14925;51.026;13.752;2023-01-15T20:15:09;5.15;;;0.90;;
27489;SDS011;14925;51.026;13.752;2023-01-15T20:17:40;2.10;;;0.82;;
27489;SDS011;14925;51.026;13.752;2023-01-15T20:20:06;3.00;;;0.85;;
27489;SDS011;14925;51.026;13.752;2023-01-15T20:22:33;3.00;;;0.80;;
27489;SDS011;14925;51.026;13.752;2023-01-15T20:24:59;4.63;;;0.88;;
27489;SDS011;14925;51.026;13.752;2023-01-15T20:27:24;7.60;;;1.10;;
27489;SDS011;14925;51.026;13.752;2023-01-15T20:29:50;4.50;;;1.13;;
27489;SDS011;14925;51.026;13.752;2023-01-15T20:32:19;2.75;;;0.90;;
27489;SDS011;14925;51.026;13.752;2023-01-15T20:34:45;6.10;;;1.00;;
27489;SDS011;14925;51.026;13.752;2023-01-15T20:37:11;6.47;;;1.10;;
27489;SDS011;14925;51.026;13.752;2023-01-15T20:39:36;4.65;;;1.20;;
27489;SDS011;14925;51.026;13.752;2023-01-15T20:42:01;3.70;;;0.90;;
27489;SDS011;14925;51.026;13.752;2023-01-15T20:44:45;4.00;;;0.98;;
27489;SDS011;14925;51.026;13.752;2023-01-15T20:47:17;4.45;;;1.00;;
27489;SDS011;14925;51.026;13.752;2023-01-15T20:50:01;3.85;;;1.00;;
27489;SDS011;14925;51.026;13.752;2023-01-15T20:52:27;4.90;;;1.00;;
27489;SDS011;14925;51.026;13.752;2023-01-15T20:54:52;4.15;;;0.88;;
27489;SDS011;14925;51.026;13.752;2023-01-15T20:57:18;5.53;;;1.17;;
27489;SDS011;14925;51.026;13.752;2023-01-15T20:59:43;4.40;;;0.90;;
27489;SDS011;14925;51.026;13.752;2023-01-15T21:02:12;2.72;;;1.00;;
27489;SDS011;14925;51.026;13.752;2023-01-15T21:04:37;2.85;;;0.77;;
27489;SDS011;14925;51.026;13.752;2023-01-15T21:07:06;4.40;;;0.85;;
27489;SDS011;14925;51.026;13.752;2023-01-15T21:09:34;4.88;;;1.15;;
27489;SDS011;14925;51.026;13.752;2023-01-15T21:12:00;4.15;;;1.05;;
27489;SDS011;14925;51.026;13.752;2023-01-15T21:14:25;3.85;;;1.20;;
27489;SDS011;14925;51.026;13.752;2023-01-15T21:16:51;3.17;;;0.90;;
27489;SDS011;14925;51.026;13.752;2023-01-15T21:19:26;3.42;;;1.20;;
27489;SDS011;14925;51.026;13.752;2023-01-15T21:21:52;6.55;;;1.20;;
27489;SDS011;14925;51.026;13.752;2023-01-15T21:24:19;2.22;;;1.00;;
27489;SDS011;14925;51.026;13.752;2023-01-15T21:26:47;2.30;;;1.00;;
27489;SDS011;14925;51.026;13.752;2023-01-15T21:29:13;6.68;;;1.60;;
27489;SDS011;14925;51.026;13.752;2023-01-15T21:31:39;4.70;;;1.10;;
27489;SDS011;14925;51.026;13.752;2023-01-15T21:34:04;7.53;;;1.20;;
27489;SDS011;14925;51.026;13.752;2023-01-15T21:36:30;3.60;;;1.27;;
27489;SDS011;14925;51.026;13.752;2023-01-15T21:38:56;5.63;;;1.30;;
27489;SDS011;14925;51.026;13.752;2023-01-15T21:41:23;3.70;;;1.38;;
27489;SDS011;14925;51.026;13.752;2023-01-15T21:44:13;2.90;;;1.20;;
27489;SDS011;14925;51.026;13.752;2023-01-15T21:46:55;5.13;;;1.25;;
27489;SDS011;14925;51.026;13.752;2023-01-15T21:49:20;2.53;;;1.10;;
27489;SDS011;14925;51.026;13.752;2023-01-15T21:51:46;4.90;;;1.60;;
27489;SDS011;14925;51.026;13.752;2023-01-15T21:54:12;3.78;;;1.20;;
27489;SDS011;14925;51.026;13.752;2023-01-15T21:56:37;3.28;;;1.20;;
27489;SDS011;14925;51.026;13.752;2023-01-15T21:59:04;3.75;;;1.08;;
27489;SDS011;14925;51.026;13.752;2023-01-15T22:01:30;5.95;;;1.10;;
27489;SDS011;14925;51.026;13.752;2023-01-15T22:03:56;5.80;;;1.25;;
27489;SDS011;14925;51.026;13.752;2023-01-15T22:06:21;2.13;;;1.10;;
27489;SDS011;14925;51.026;13.752;2023-01-15T22:08:47;3.47;;;1.30;;
27489;SDS011;14925;51.026;13.752;2023-01-15T22:11:12;5.68;;;1.08;;
27489;SDS011;14925;51.026;13.752;2023-01-15T22:13:38;4.85;;;1.10;;
27489;SDS011;14925;51.026;13.752;2023-01-15T22:16:05;4.93;;;1.13;;
27489;SDS011;14925;51.026;13.752;2023-01-15T22:18:32;3.80;;;0.95;;
27489;SDS011;14925;51.026;13.752;2023-01-15T22:21:01;2.38;;;0.90;;
27489;SDS011;14925;51.026;13.752;2023-01-15T22:23:31;2.30;;;1.10;;
27489;SDS011;14925;51.026;13.752;2023-01-15T22:25:57;4.07;;;1.33;;
27489;SDS011;14925;51.026;13.752;2023-01-15T22:28:23;3.38;;;1.23;;
27489;SDS011;14925;51.026;13.752;2023-01-15T22:30:48;2.03;;;1.00;;
27489;SDS011;14925;51.026;13.752;2023-01-15T22:33:14;4.50;;;1.20;;
27489;SDS011;14925;51.026;13.752;2023-01-15T22:35:40;5.13;;;1.10;;
27489;SDS011;14925;51.026;13.752;2023-01-15T22:38:05;3.13;;;0.98;;
27489;SDS011;14925;51.026;13.752;2023-01-15T22:40:31;4.95;;;1.10;;
27489;SDS011;14925;51.026;13.752;2023-01-15T22:42:56;3.85;;;1.00;;
27489;SDS011;14925;51.026;13.752;2023-01-15T22:45:22;2.08;;;0.80;;
27489;SDS011;14925;51.026;13.752;2023-01-15T22:47:48;3.85;;;0.90;;
27489;SDS011;14925;51.026;13.752;2023-01-15T22:50:13;4.47;;;0.77;;
27489;SDS011;14925;51.026;13.752;2023-01-15T22:52:39;3.08;;;1.00;;
27489;SDS011;14925;51.026;13.752;2023-01-15T22:55:05;6.07;;;1.00;;
27489;SDS011;14925;51.026;13.752;2023-01-15T22:57:31;5.03;;;1.05;;
27489;SDS011;14925;51.026;13.752;2023-01-15T22:59:57;4.47;;;1.23;;
27489;SDS011;14925;51.026;13.752;2023-01-15T23:02:23;2.65;;;0.70;;
27489;SDS011;14925;51.026;13.752;2023-01-15T23:05:07;2.35;;;0.90;;
27489;SDS011;14925;51.026;13.752;2023-01-15T23:07:34;3.08;;;0.80;;
27489;SDS011;14925;51.026;13.752;2023-01-15T23:10:00;3.17;;;0.90;;
27489;SDS011;14925;51.026;13.752;2023-01-15T23:12:28;3.83;;;0.77;;
27489;SDS011;14925;51.026;13.752;2023-01-15T23:14:54;2.60;;;0.95;;
27489;SDS011;14925;51.026;13.752;2023-01-15T23:17:19;4.00;;;0.95;;
27489;SDS011;14925;51.026;13.752;2023-01-15T23:19:45;3.78;;;1.30;;
27489;SDS011;14925;51.026;13.752;2023-01-15T23:22:10;2.60;;;0.82;;
27489;SDS011;14925;51.026;13.752;2023-01-15T23:24:36;3.17;;;0.90;;
27489;SDS011;14925;51.026;13.752;2023-01-15T23:27:01;3.38;;;1.08;;
27489;SDS011;14925;51.026;13.752;2023-01-15T23:29:26;2.42;;;0.80;;
27489;SDS011;14925;51.026;13.752;2023-01-15T23:31:52;2.88;;;1.05;;
27489;SDS011;14925;51.026;13.752;2023-01-15T23:34:17;2.35;;;0.90;;
27489;SDS011;14925;51.026;13.752;2023-01-15T23:36:43;1.75;;;0.70;;
27489;SDS011;14925;51.026;13.752;2023-01-15T23:39:09;3.45;;;0.70;;
27489;SDS011;14925;51.026;13.752;2023-01-15T23:41:35;5.05;;;0.85;;
27489;SDS011;14925;51.026;13.752;2023-01-15T23:44:19;2.63;;;0.60;;
27489;SDS011;14925;51.026;13.752;2023-01-15T23:47:04;3.55;;;0.70;;
27489;SDS011;14925;51.026;13.752;2023-01-15T23:49:30;2.38;;;0.93;;
27489;SDS011;14925;51.026;13.752;2023-01-15T23:51:56;3.08;;;0.80;;
27489;SDS011;14925;51.026;13.752;2023-01-15T23:54:22;4.10;;;1.00;;
27489;SDS011;14925;51.026;13.752;2023-01-15T23:56:51;4.68;;;1.00;;
27489;SDS011;14925;51.026;13.752;2023-01-15T23:59:16;2.00;;;0.80;;
